XRY weather

Jerez Airport
Jerez de la Forntera, AndalucĂ­a, Spain

Public forecast

Using degrees Celsius for public forecast. Weather courtesy of forecast.io.

METAR (pilot weather report)

Retrieved 2019/02/16 21:30 UTC (10 minutes ago):

LEJR 162130Z 09008KT 060V130 CAVOK 13/07 Q1022

TAF (pilot weather forecast)

Retrieved 2019/02/16 18:27 UTC (3 hours ago):

TAF LEJR 161700Z 1618/1718 12012KT 9999 FEW030 TX21/1714Z TN06/1706Z PROB30 TEMPO 1618/1620 13015G25KT BECMG 1620/1622 04005KT BECMG 1710/1712 12012KT